Time;durP1;ratioP1;P1;durP2;ratioP2;P2;SDS_P1;SDS_P2;PMS_P1;PMS_P2;Temp;Humidity;BMP_temperature;BMP_pressure;BME280_temperature;BME280_humidity;BME280_pressure;Samples;Min_cycle;Max_cycle;Signal;HPM_P1;HPM_P2
2021/05/05 00:01:32;;;;;;;27.37;26.37;;;8.70;99.90;;;;;;5010835;28;20862;-76
2021/05/05 00:03:58;;;;;;;26.93;25.93;;;8.70;99.90;;;;;;5010691;28;20485;-76
2021/05/05 00:06:24;;;;;;;27.20;26.20;;;8.70;99.90;;;;;;5010521;28;20572;-76
2021/05/05 00:08:50;;;;;;;26.90;25.90;;;8.70;99.90;;;;;;5010628;28;20892;-76
2021/05/05 00:11:16;;;;;;;27.93;26.80;;;8.60;99.90;;;;;;5010669;28;20461;-76
2021/05/05 00:13:43;;;;;;;27.00;25.90;;;8.50;99.90;;;;;;5010717;28;20511;-74
2021/05/05 00:16:10;;;;;;;26.83;25.73;;;8.50;99.90;;;;;;5010483;28;20508;-73
2021/05/05 00:18:36;;;;;;;27.60;26.50;;;8.50;99.90;;;;;;5010170;28;20456;-73
2021/05/05 00:21:04;;;;;;;27.70;26.63;;;8.40;99.90;;;;;;5009483;28;20474;-74
2021/05/05 00:23:30;;;;;;;25.90;25.00;;;8.50;99.90;;;;;;5010376;28;21030;-73
2021/05/05 00:25:56;;;;;;;28.27;27.07;;;8.30;99.90;;;;;;5010218;28;20797;-74
2021/05/05 00:28:22;;;;;;;28.70;27.50;;;8.30;99.90;;;;;;5009946;28;20454;-72
2021/05/05 00:30:49;;;;;;;29.30;28.20;;;8.30;99.90;;;;;;5010666;28;20531;-72
2021/05/05 00:33:16;;;;;;;28.50;27.40;;;8.40;99.90;;;;;;5010343;28;20490;-72
2021/05/05 00:35:42;;;;;;;29.43;28.27;;;8.30;99.90;;;;;;5010142;28;20462;-72
2021/05/05 00:38:10;;;;;;;28.40;27.17;;;8.40;99.90;;;;;;5009889;28;20449;-73
2021/05/05 00:40:36;;;;;;;29.30;27.93;;;8.40;99.90;;;;;;5010302;28;20910;-73
2021/05/05 00:43:02;;;;;;;28.83;27.43;;;8.30;99.90;;;;;;5010325;28;20512;-75
2021/05/05 00:45:29;;;;;;;27.40;26.30;;;8.30;99.90;;;;;;5010011;28;20454;-73
2021/05/05 00:47:55;;;;;;;27.80;26.70;;;8.20;99.90;;;;;;5009810;28;20464;-76
2021/05/05 00:50:22;;;;;;;27.70;26.60;;;8.20;99.90;;;;;;5010179;28;20458;-76
2021/05/05 00:52:48;;;;;;;28.20;27.00;;;8.20;99.90;;;;;;5010353;28;20877;-75
2021/05/05 00:55:15;;;;;;;28.40;27.20;;;8.20;99.90;;;;;;5010116;28;20454;-76
2021/05/05 00:57:42;;;;;;;28.23;26.90;;;8.20;99.90;;;;;;5009826;28;20645;-76
2021/05/05 01:00:10;;;;;;;25.33;24.43;;;8.20;99.90;;;;;;5010059;28;20469;-76
2021/05/05 01:02:37;;;;;;;26.83;25.73;;;8.20;99.90;;;;;;5010012;28;20485;-76
2021/05/05 01:05:04;;;;;;;27.90;26.80;;;8.20;99.90;;;;;;5010200;28;20457;-76
2021/05/05 01:07:31;;;;;;;29.10;27.90;;;8.20;99.90;;;;;;5010056;28;20951;-76
2021/05/05 01:09:57;;;;;;;28.60;27.40;;;8.20;99.90;;;;;;5009840;28;20458;-76
2021/05/05 01:12:24;;;;;;;27.60;26.50;;;8.20;99.90;;;;;;5010045;28;20450;-76
2021/05/05 01:14:50;;;;;;;27.73;26.40;;;8.20;99.90;;;;;;5010231;28;20449;-75
2021/05/05 01:17:17;;;;;;;28.00;26.90;;;8.20;99.90;;;;;;5009970;28;20453;-75
2021/05/05 01:19:43;;;;;;;26.50;25.50;;;8.20;99.90;;;;;;5010042;28;20450;-74
2021/05/05 01:22:10;;;;;;;27.60;26.50;;;8.20;99.90;;;;;;5009664;28;20516;-74
2021/05/05 01:24:37;;;;;;;26.23;25.20;;;8.10;99.90;;;;;;5009544;28;20446;-73
2021/05/05 01:27:05;;;;;;;27.10;25.90;;;8.20;99.90;;;;;;5010249;28;20884;-73
2021/05/05 01:29:31;;;;;;;26.83;25.63;;;8.30;99.90;;;;;;5010445;28;20453;-73
2021/05/05 01:31:58;;;;;;;25.80;24.70;;;8.30;99.90;;;;;;5013479;28;20450;-73
2021/05/05 01:34:24;;;;;;;26.53;25.43;;;8.20;99.90;;;;;;5013374;28;20544;-73
2021/05/05 01:36:50;;;;;;;26.57;25.43;;;8.30;99.90;;;;;;5013091;28;20465;-74
2021/05/05 01:39:18;;;;;;;26.93;25.63;;;8.30;99.90;;;;;;5013409;28;20456;-74
2021/05/05 01:41:46;;;;;;;26.30;25.10;;;8.30;99.90;;;;;;5013205;28;20454;-74
2021/05/05 01:44:14;;;;;;;25.00;24.00;;;8.30;99.90;;;;;;5013107;28;20536;-74
2021/05/05 01:46:47;;;;;;;26.80;25.80;;;8.30;99.90;;;;;;5012971;28;20457;-75
2021/05/05 01:49:24;;;;;;;27.67;26.50;;;8.20;99.90;;;;;;5012995;28;20916;-75
2021/05/05 01:51:50;;;;;;;26.17;25.17;;;8.20;99.90;;;;;;5013025;28;20659;-76
2021/05/05 01:54:18;;;;;;;26.23;25.33;;;8.20;99.90;;;;;;5013009;28;20571;-76
2021/05/05 01:56:44;;;;;;;26.10;25.00;;;8.30;99.90;;;;;;5012951;28;20458;-74
2021/05/05 01:59:11;;;;;;;26.80;25.70;;;8.20;99.90;;;;;;5012804;28;20453;-74
2021/05/05 02:01:37;;;;;;;28.30;27.20;;;8.20;99.90;;;;;;5012704;28;20450;-73
2021/05/05 02:04:04;;;;;;;28.20;27.10;;;8.10;99.90;;;;;;5012692;28;20482;-73
2021/05/05 02:06:30;;;;;;;28.40;26.90;;;8.10;99.90;;;;;;5012648;28;20462;-73
2021/05/05 02:08:57;;;;;;;27.10;26.00;;;8.10;99.90;;;;;;5012684;28;20454;-73
2021/05/05 02:11:25;;;;;;;27.80;26.40;;;8.10;99.90;;;;;;5012624;28;20497;-74
2021/05/05 02:13:51;;;;;;;27.30;26.20;;;8.10;99.90;;;;;;5012469;28;20825;-74
2021/05/05 02:16:18;;;;;;;27.40;26.13;;;8.10;99.90;;;;;;5012742;28;20457;-73
2021/05/05 02:18:44;;;;;;;28.43;27.33;;;8.00;99.90;;;;;;5012581;28;20473;-74
2021/05/05 02:21:11;;;;;;;28.90;27.60;;;8.00;99.90;;;;;;5012241;28;20830;-72
2021/05/05 02:23:37;;;;;;;29.50;27.90;;;7.90;99.90;;;;;;5012234;28;20488;-72
2021/05/05 02:26:04;;;;;;;29.40;28.07;;;7.90;99.90;;;;;;5012327;28;20472;-74
2021/05/05 02:28:32;;;;;;;29.40;28.20;;;7.90;99.90;;;;;;5012192;28;20975;-72
2021/05/05 02:30:58;;;;;;;28.40;27.10;;;8.00;99.90;;;;;;5012110;28;20450;-71
2021/05/05 02:33:25;;;;;;;28.47;27.27;;;7.90;99.90;;;;;;5012198;28;20615;-71
2021/05/05 02:35:52;;;;;;;28.23;26.80;;;7.90;99.90;;;;;;5011758;28;20457;-71
2021/05/05 02:38:19;;;;;;;29.87;28.57;;;7.90;99.90;;;;;;5011756;28;20449;-71
2021/05/05 02:40:46;;;;;;;30.20;28.80;;;7.90;99.90;;;;;;5011425;28;20465;-71
2021/05/05 02:43:12;;;;;;;29.53;28.20;;;7.90;99.90;;;;;;5011580;28;20490;-72
2021/05/05 02:45:40;;;;;;;30.60;29.30;;;7.90;99.90;;;;;;5011561;28;20830;-72
2021/05/05 02:48:06;;;;;;;29.70;28.20;;;7.90;99.90;;;;;;5011589;28;20461;-70
2021/05/05 02:50:33;;;;;;;29.80;28.50;;;8.00;99.90;;;;;;5011826;28;20861;-72
2021/05/05 02:52:59;;;;;;;29.50;28.03;;;7.90;99.90;;;;;;5009006;28;20819;-70
2021/05/05 02:55:25;;;;;;;29.03;27.20;;;7.90;99.90;;;;;;5011299;28;20438;-70
2021/05/05 02:57:51;;;;;;;28.30;27.10;;;7.90;99.90;;;;;;5011440;28;20456;-71
2021/05/05 03:00:18;;;;;;;29.97;28.10;;;7.90;99.90;;;;;;5009203;28;20488;-69
2021/05/05 03:02:46;;;;;;;28.70;27.50;;;7.90;99.90;;;;;;5006911;28;20481;-69
2021/05/05 03:05:12;;;;;;;29.53;27.90;;;7.90;99.90;;;;;;5011701;28;20457;-70
2021/05/05 03:07:39;;;;;;;27.43;26.33;;;7.90;99.90;;;;;;5011691;28;20457;-68
2021/05/05 03:10:07;;;;;;;28.23;27.03;;;7.90;99.90;;;;;;5000430;28;20866;-69
2021/05/05 03:12:33;;;;;;;28.80;27.60;;;7.80;99.90;;;;;;4992068;28;20458;-69
2021/05/05 03:14:59;;;;;;;27.87;26.67;;;7.90;99.90;;;;;;4991717;28;20983;-68
2021/05/05 03:17:26;;;;;;;27.17;26.07;;;7.90;99.90;;;;;;4991819;28;20458;-69
2021/05/05 03:19:53;;;;;;;27.47;26.20;;;7.90;99.90;;;;;;4991891;28;20481;-69
2021/05/05 03:22:19;;;;;;;28.80;27.00;;;7.90;99.90;;;;;;5002276;28;20507;-69
2021/05/05 03:24:45;;;;;;;27.80;26.60;;;7.80;99.90;;;;;;5011316;28;20445;-70
2021/05/05 03:27:12;;;;;;;27.80;26.50;;;7.80;99.90;;;;;;5011190;28;20461;-70
2021/05/05 03:29:38;;;;;;;26.60;25.40;;;7.80;99.90;;;;;;5011261;28;20477;-70
2021/05/05 03:32:05;;;;;;;27.00;25.83;;;7.80;99.90;;;;;;5011062;28;20456;-70
2021/05/05 03:34:31;;;;;;;27.30;25.90;;;7.80;99.90;;;;;;5011635;28;20777;-70
2021/05/05 03:36:58;;;;;;;28.90;26.77;;;7.90;99.90;;;;;;5010926;28;20514;-70
2021/05/05 03:39:24;;;;;;;29.13;27.47;;;7.90;99.90;;;;;;5010868;28;20457;-71
2021/05/05 03:41:51;;;;;;;27.17;26.07;;;8.00;99.90;;;;;;5011000;28;20445;-69
2021/05/05 03:44:17;;;;;;;29.20;27.57;;;8.00;99.90;;;;;;5010860;28;21006;-70
2021/05/05 03:46:43;;;;;;;28.23;27.03;;;8.00;99.90;;;;;;5010526;28;20458;-69
2021/05/05 03:49:09;;;;;;;27.90;26.80;;;8.10;99.90;;;;;;5010762;28;20950;-69
2021/05/05 03:51:36;;;;;;;27.70;26.60;;;8.00;99.90;;;;;;5010796;28;20784;-69
2021/05/05 03:54:04;;;;;;;27.37;26.17;;;8.00;99.90;;;;;;5010275;28;20442;-70
2021/05/05 03:56:31;;;;;;;28.97;27.87;;;8.00;99.90;;;;;;5011117;28;20828;-71
2021/05/05 03:58:57;;;;;;;29.53;28.23;;;8.00;99.90;;;;;;5010666;28;20457;-71
2021/05/05 04:01:23;;;;;;;28.63;27.43;;;8.10;99.90;;;;;;5010089;28;20453;-70
2021/05/05 04:03:49;;;;;;;27.47;26.37;;;8.10;99.90;;;;;;5010509;28;20489;-70
2021/05/05 04:06:15;;;;;;;28.37;27.27;;;8.10;99.90;;;;;;5010580;28;20457;-71
2021/05/05 04:08:42;;;;;;;28.40;26.90;;;8.10;99.90;;;;;;5010370;28;20932;-70
2021/05/05 04:11:09;;;;;;;28.40;27.30;;;8.10;99.90;;;;;;5010488;28;20458;-71
2021/05/05 04:13:35;;;;;;;28.87;27.60;;;8.10;99.90;;;;;;5010350;28;20453;-71
2021/05/05 04:16:01;;;;;;;29.63;28.20;;;8.00;99.90;;;;;;5010161;28;20817;-71
2021/05/05 04:18:27;;;;;;;28.50;27.33;;;8.00;99.90;;;;;;5010182;28;20496;-71
2021/05/05 04:20:55;;;;;;;28.50;27.30;;;8.00;99.90;;;;;;5009945;28;20525;-72
2021/05/05 04:23:21;;;;;;;28.50;27.40;;;7.90;99.90;;;;;;5009481;28;20497;-71
2021/05/05 04:25:48;;;;;;;29.27;28.07;;;7.80;99.90;;;;;;5010035;28;20955;-71
2021/05/05 04:28:15;;;;;;;29.63;27.80;;;7.80;99.90;;;;;;5009903;28;20465;-71
2021/05/05 04:30:41;;;;;;;29.43;28.03;;;7.80;99.90;;;;;;5009569;28;20677;-71
2021/05/05 04:33:08;;;;;;;29.27;28.07;;;7.80;99.90;;;;;;5010322;28;20453;-71
2021/05/05 04:35:34;;;;;;;30.27;28.57;;;7.90;99.90;;;;;;5010043;28;20515;-70
2021/05/05 04:38:00;;;;;;;29.97;28.67;;;7.80;99.90;;;;;;5010019;28;20454;-71
2021/05/05 04:40:26;;;;;;;29.53;28.33;;;7.80;99.90;;;;;;5010392;28;20456;-71
2021/05/05 04:42:53;;;;;;;29.50;28.30;;;7.90;99.90;;;;;;5009801;28;20504;-71
2021/05/05 04:45:20;;;;;;;30.70;29.03;;;7.90;99.90;;;;;;5010241;28;20457;-71
2021/05/05 04:47:46;;;;;;;29.77;28.47;;;7.80;99.90;;;;;;5010631;28;20464;-72
2021/05/05 04:50:13;;;;;;;29.57;28.27;;;7.90;99.90;;;;;;5010130;28;20508;-71
2021/05/05 04:52:39;;;;;;;31.20;29.90;;;7.80;99.90;;;;;;5010092;28;20448;-70
2021/05/05 04:55:07;;;;;;;31.30;30.00;;;7.80;99.90;;;;;;5009957;28;20500;-70
2021/05/05 04:57:33;;;;;;;32.00;30.60;;;7.70;99.90;;;;;;5010299;28;20458;-70
2021/05/05 05:00:00;;;;;;;31.70;30.50;;;7.70;99.90;;;;;;5009670;28;20473;-71
2021/05/05 05:02:27;;;;;;;31.07;29.77;;;7.70;99.90;;;;;;5010225;28;20507;-70
2021/05/05 05:04:53;;;;;;;30.53;29.13;;;7.80;99.90;;;;;;5012730;28;20480;-70
2021/05/05 05:07:19;;;;;;;30.50;29.20;;;7.80;99.90;;;;;;5013674;28;20450;-70
2021/05/05 05:09:45;;;;;;;29.07;27.97;;;7.80;99.90;;;;;;5013798;28;20820;-72
2021/05/05 05:12:11;;;;;;;29.10;28.00;;;7.80;99.90;;;;;;5013471;28;20495;-72
2021/05/05 05:14:38;;;;;;;27.57;26.40;;;7.80;99.90;;;;;;5013756;28;20508;-71
2021/05/05 05:17:04;;;;;;;26.80;25.80;;;7.90;99.90;;;;;;5013843;28;20498;-71
2021/05/05 05:19:32;;;;;;;25.90;24.80;;;7.80;99.90;;;;;;5013762;28;20461;-71
2021/05/05 05:22:00;;;;;;;26.67;25.67;;;7.80;99.90;;;;;;5013339;28;20535;-71
2021/05/05 05:24:26;;;;;;;27.10;26.00;;;7.90;99.90;;;;;;5013258;28;20524;-71
2021/05/05 05:26:52;;;;;;;27.50;26.40;;;8.00;99.90;;;;;;5013385;28;20468;-71
2021/05/05 05:29:18;;;;;;;26.43;24.90;;;8.00;99.90;;;;;;5014050;28;20445;-71
2021/05/05 05:31:45;;;;;;;23.90;22.90;;;8.00;99.90;;;;;;5013287;28;20449;-71
2021/05/05 05:34:11;;;;;;;21.13;20.33;;;8.00;99.90;;;;;;5013364;28;20590;-71
2021/05/05 05:36:38;;;;;;;21.50;20.70;;;7.90;99.90;;;;;;5013256;28;20449;-72
2021/05/05 05:39:06;;;;;;;20.70;19.83;;;7.90;99.90;;;;;;5013578;28;20454;-72
2021/05/05 05:41:32;;;;;;;20.40;19.60;;;8.00;99.90;;;;;;5013375;28;20500;-72
2021/05/05 05:43:58;;;;;;;19.90;19.20;;;8.10;99.90;;;;;;5013222;28;20493;-72
2021/05/05 05:46:25;;;;;;;19.80;18.67;;;8.20;99.90;;;;;;5013241;28;20460;-71
2021/05/05 05:48:51;;;;;;;19.87;18.97;;;8.30;99.90;;;;;;5013064;28;20461;-72
2021/05/05 05:51:17;;;;;;;19.97;19.07;;;8.30;99.90;;;;;;5013495;28;20453;-72
2021/05/05 05:53:44;;;;;;;18.13;17.10;;;8.50;99.90;;;;;;5013241;28;20449;-72
2021/05/05 05:56:10;;;;;;;18.80;18.10;;;8.60;99.90;;;;;;5012938;28;20454;-73
2021/05/05 05:58:37;;;;;;;19.40;18.57;;;8.70;99.90;;;;;;5012986;28;20500;-72
2021/05/05 06:01:03;;;;;;;21.80;20.47;;;8.70;99.90;;;;;;5013144;28;20446;-73
2021/05/05 06:03:30;;;;;;;18.90;18.30;;;8.80;99.90;;;;;;5012828;28;20536;-71
2021/05/05 06:05:56;;;;;;;18.30;17.60;;;8.60;99.90;;;;;;5012644;28;20612;-72
2021/05/05 06:08:22;;;;;;;18.23;17.20;;;8.70;99.90;;;;;;5013005;28;20446;-73
2021/05/05 06:10:50;;;;;;;18.03;17.33;;;8.70;99.90;;;;;;5012842;28;20465;-74
2021/05/05 06:13:16;;;;;;;16.43;15.60;;;8.90;99.90;;;;;;5013207;28;20446;-74
2021/05/05 06:15:43;;;;;;;16.17;15.57;;;8.80;99.90;;;;;;5011943;28;20457;-74
2021/05/05 06:18:09;;;;;;;14.93;14.43;;;8.90;99.90;;;;;;5012532;28;20446;-74
2021/05/05 06:20:36;;;;;;;14.53;13.93;;;9.10;99.90;;;;;;5012248;28;20469;-73
2021/05/05 06:23:02;;;;;;;15.07;14.37;;;9.10;99.90;;;;;;5012262;28;20493;-72
2021/05/05 06:25:28;;;;;;;13.40;12.90;;;9.30;99.90;;;;;;5012305;28;20450;-73
2021/05/05 06:27:55;;;;;;;14.00;13.20;;;9.20;99.90;;;;;;5012335;28;20731;-74
2021/05/05 06:30:22;;;;;;;13.43;12.63;;;9.40;99.90;;;;;;5012177;28;20457;-73
2021/05/05 06:32:49;;;;;;;12.73;12.23;;;9.50;99.90;;;;;;5012181;28;20959;-73
2021/05/05 06:35:15;;;;;;;12.70;12.00;;;9.60;99.90;;;;;;5011937;28;20523;-73
2021/05/05 06:37:42;;;;;;;12.37;11.87;;;9.90;99.90;;;;;;5011808;28;20515;-73
2021/05/05 06:40:09;;;;;;;14.23;13.50;;;10.30;99.90;;;;;;5011709;28;20508;-73
2021/05/05 06:42:36;;;;;;;12.57;11.87;;;10.40;99.90;;;;;;5011708;28;20456;-72
2021/05/05 06:45:04;;;;;;;11.60;11.00;;;10.60;99.90;;;;;;5012238;28;20453;-73
2021/05/05 06:47:30;;;;;;;11.23;10.40;;;10.70;99.90;;;;;;5011861;28;20457;-73
2021/05/05 06:49:56;;;;;;;11.43;11.03;;;10.90;99.90;;;;;;5011567;28;20460;-73
2021/05/05 06:52:22;;;;;;;11.63;10.93;;;11.00;99.90;;;;;;5011608;28;20450;-73
2021/05/05 06:54:49;;;;;;;11.83;11.33;;;11.00;99.90;;;;;;5011921;28;20453;-73
2021/05/05 06:57:15;;;;;;;12.47;11.70;;;11.00;99.90;;;;;;5012036;28;20473;-74
2021/05/05 06:59:41;;;;;;;12.40;11.90;;;10.80;99.90;;;;;;5011630;28;20454;-73
2021/05/05 07:02:09;;;;;;;12.50;11.77;;;11.00;99.90;;;;;;5011225;28;20460;-74
2021/05/05 07:04:35;;;;;;;13.70;13.10;;;11.20;99.90;;;;;;5011476;28;20497;-73
2021/05/05 07:07:01;;;;;;;13.03;12.37;;;11.50;99.90;;;;;;5011542;28;20465;-73
2021/05/05 07:09:27;;;;;;;12.00;11.50;;;12.00;99.90;;;;;;5011396;28;20520;-73
2021/05/05 07:11:53;;;;;;;12.40;11.90;;;12.20;99.90;;;;;;5011019;28;20787;-73
2021/05/05 07:14:20;;;;;;;14.43;13.73;;;12.30;99.90;;;;;;5011236;28;20508;-73
2021/05/05 07:16:46;;;;;;;13.07;11.87;;;12.40;99.90;;;;;;5009510;28;20461;-72
2021/05/05 07:19:13;;;;;;;12.00;11.20;;;12.30;99.90;;;;;;5011804;28;20478;-72
2021/05/05 07:21:39;;;;;;;12.20;11.67;;;12.50;99.90;;;;;;5011207;28;20539;-70
2021/05/05 07:24:06;;;;;;;11.47;11.00;;;12.70;99.90;;;;;;5011544;28;20481;-72
2021/05/05 07:26:33;;;;;;;11.97;11.07;;;12.90;99.90;;;;;;5011429;28;20816;-72
2021/05/05 07:28:59;;;;;;;12.10;11.30;;;12.80;99.90;;;;;;5010813;28;20827;-70
2021/05/05 07:31:25;;;;;;;12.10;11.30;;;12.70;99.90;;;;;;5011342;28;20826;-70
2021/05/05 07:33:52;;;;;;;12.17;10.90;;;12.60;99.90;;;;;;5010983;28;20928;-70
2021/05/05 07:36:24;;;;;;;11.30;10.60;;;12.70;99.90;;;;;;5011338;28;20457;-71
2021/05/05 07:39:11;;;;;;;10.87;10.37;;;13.10;99.90;;;;;;5011288;28;20462;-70
2021/05/05 07:42:18;;;;;;;12.77;11.57;;;13.10;99.90;;;;;;5010971;28;20460;-70
2021/05/05 07:47:28;;;;;;;11.03;10.23;;;12.30;99.90;;;;;;5010079;28;20548;-70
2021/05/05 07:49:56;;;;;;;10.87;10.47;;;12.40;99.90;;;;;;5011213;28;20454;-71
2021/05/05 07:52:23;;;;;;;12.20;11.57;;;13.40;99.90;;;;;;5010952;28;20952;-71
2021/05/05 07:54:50;;;;;;;11.40;10.90;;;14.40;98.90;;;;;;5011090;28;20458;-70
2021/05/05 07:57:18;;;;;;;12.87;12.07;;;14.20;96.60;;;;;;5011237;28;20446;-71
2021/05/05 07:59:44;;;;;;;11.73;11.03;;;14.20;96.70;;;;;;5011032;28;20461;-70
2021/05/05 08:02:11;;;;;;;12.07;11.27;;;15.10;94.50;;;;;;5010761;28;20816;-70
2021/05/05 08:04:37;;;;;;;11.60;10.70;;;14.60;90.90;;;;;;5010621;28;20489;-70
2021/05/05 08:07:03;;;;;;;10.40;9.80;;;13.70;92.90;;;;;;5010895;28;20449;-70
2021/05/05 08:09:30;;;;;;;10.73;10.33;;;13.90;92.90;;;;;;5010641;28;20453;-70
2021/05/05 08:11:56;;;;;;;10.20;9.70;;;13.20;91.10;;;;;;5010903;28;20456;-70
2021/05/05 08:14:25;;;;;;;10.00;9.50;;;13.60;92.00;;;;;;5010630;28;20943;-70
2021/05/05 08:16:51;;;;;;;10.10;9.70;;;13.60;91.00;;;;;;5010611;28;20481;-70
2021/05/05 08:19:17;;;;;;;11.57;10.80;;;13.40;90.20;;;;;;5010777;28;20474;-70
2021/05/05 08:21:44;;;;;;;10.40;10.00;;;13.90;90.10;;;;;;5010256;28;20489;-70
2021/05/05 08:24:10;;;;;;;11.40;10.50;;;14.10;85.80;;;;;;5010452;28;20616;-70
2021/05/05 08:26:37;;;;;;;10.97;10.57;;;14.30;88.00;;;;;;5010899;28;20454;-70
2021/05/05 08:29:04;;;;;;;11.40;10.57;;;14.20;86.90;;;;;;5010832;28;20461;-70
2021/05/05 08:31:30;;;;;;;11.30;10.70;;;13.90;88.10;;;;;;5010476;28;20449;-70
2021/05/05 08:33:57;;;;;;;11.80;11.00;;;13.70;90.00;;;;;;5010232;28;20450;-69
2021/05/05 08:36:23;;;;;;;10.27;9.80;;;12.90;90.10;;;;;;5010298;28;20991;-68
2021/05/05 08:38:50;;;;;;;11.47;10.83;;;12.40;92.30;;;;;;5011797;28;20450;-69
2021/05/05 08:41:16;;;;;;;10.50;10.00;;;12.00;95.10;;;;;;5014753;28;20814;-69
2021/05/05 08:43:43;;;;;;;11.23;10.67;;;12.50;95.10;;;;;;5014174;28;20485;-69
2021/05/05 08:46:10;;;;;;;10.50;9.90;;;13.60;93.20;;;;;;5014506;28;20441;-69
2021/05/05 08:48:36;;;;;;;11.20;10.60;;;14.90;91.10;;;;;;5014626;28;20453;-69
2021/05/05 08:51:05;;;;;;;11.37;10.87;;;16.30;85.20;;;;;;5014845;28;20449;-68
2021/05/05 08:53:32;;;;;;;10.70;10.20;;;16.50;83.10;;;;;;5014892;28;20452;-69
2021/05/05 08:55:58;;;;;;;11.70;11.07;;;17.10;78.20;;;;;;5014763;28;20453;-69
2021/05/05 08:58:24;;;;;;;12.17;11.40;;;17.30;76.90;;;;;;5014485;28;20449;-69
2021/05/05 09:00:51;;;;;;;12.40;11.40;;;17.70;72.50;;;;;;5014559;28;20457;-68
2021/05/05 09:03:18;;;;;;;11.50;11.00;;;17.60;71.70;;;;;;5014411;28;20482;-69
2021/05/05 09:05:52;;;;;;;11.83;10.80;;;17.40;73.00;;;;;;5014299;28;20507;-69
2021/05/05 09:08:20;;;;;;;12.10;11.47;;;16.50;69.50;;;;;;5014388;28;20452;-68
2021/05/05 09:11:02;;;;;;;12.00;11.40;;;16.00;70.40;;;;;;5014425;28;20457;-69
2021/05/05 09:13:50;;;;;;;11.40;10.60;;;15.50;73.40;;;;;;5013941;28;20470;-68
2021/05/05 09:16:20;;;;;;;10.50;10.00;;;15.20;74.30;;;;;;5014087;28;21098;-69
2021/05/05 09:19:00;;;;;;;9.50;9.10;;;15.00;73.30;;;;;;5013869;28;20477;-70
2021/05/05 09:21:32;;;;;;;10.73;10.27;;;15.50;74.40;;;;;;5009291;28;20489;-70
2021/05/05 09:24:16;;;;;;;11.53;11.00;;;16.60;69.50;;;;;;5012063;28;20585;-70
2021/05/05 09:26:42;;;;;;;11.70;11.00;;;18.30;67.00;;;;;;5013893;28;20449;-70
2021/05/05 09:29:09;;;;;;;10.57;10.17;;;18.30;60.40;;;;;;5013682;28;20461;-69
2021/05/05 09:31:38;;;;;;;11.60;10.83;;;17.50;61.60;;;;;;5013665;28;20956;-71
2021/05/05 09:34:07;;;;;;;11.27;10.60;;;16.70;60.60;;;;;;5013598;28;20500;-68
2021/05/05 09:36:34;;;;;;;11.07;10.67;;;15.80;61.90;;;;;;5013763;28;20503;-69
2021/05/05 09:39:03;;;;;;;11.80;11.20;;;16.20;64.40;;;;;;5013894;28;20512;-69
2021/05/05 09:41:32;;;;;;;10.50;10.10;;;16.00;65.60;;;;;;5013438;28;20465;-69
2021/05/05 09:44:01;;;;;;;9.73;9.33;;;16.10;60.80;;;;;;5013543;28;20489;-69
2021/05/05 09:46:40;;;;;;;9.20;8.80;;;17.20;57.90;;;;;;5013342;28;20999;-68
2021/05/05 09:49:27;;;;;;;10.73;10.27;;;17.70;56.10;;;;;;5013528;28;20541;-68
2021/05/05 09:51:57;;;;;;;11.67;10.97;;;17.80;54.40;;;;;;5012305;28;20458;-69
2021/05/05 09:54:29;;;;;;;8.87;8.57;;;17.80;55.00;;;;;;5013628;28;20453;-68
2021/05/05 09:57:17;;;;;;;10.53;10.03;;;18.60;53.70;;;;;;5013183;28;20468;-69
2021/05/05 09:59:57;;;;;;;10.53;9.93;;;18.70;52.50;;;;;;5013345;28;20567;-68
2021/05/05 10:02:24;;;;;;;9.80;9.40;;;18.70;54.90;;;;;;5013360;28;20801;-69
2021/05/05 10:05:02;;;;;;;11.47;10.97;;;18.80;55.20;;;;;;5012853;28;20482;-69
2021/05/05 10:07:29;;;;;;;10.53;10.00;;;18.90;55.90;;;;;;5012549;28;20469;-69
2021/05/05 10:09:56;;;;;;;11.63;11.13;;;19.50;54.40;;;;;;5012637;28;20722;-68
2021/05/05 10:12:22;;;;;;;12.53;11.70;;;19.50;53.60;;;;;;5012874;28;20484;-68
2021/05/05 10:14:51;;;;;;;10.93;10.23;;;20.30;50.70;;;;;;5013125;28;20450;-68
2021/05/05 10:17:18;;;;;;;10.77;10.30;;;18.70;48.10;;;;;;5013039;28;20456;-68
2021/05/05 10:19:46;;;;;;;10.30;9.87;;;18.20;52.10;;;;;;5012478;28;20532;-68
2021/05/05 10:22:14;;;;;;;10.80;10.40;;;19.00;49.50;;;;;;5012505;28;20485;-69
2021/05/05 10:24:45;;;;;;;11.93;11.33;;;19.80;49.40;;;;;;5012767;28;20490;-68
2021/05/05 10:27:13;;;;;;;11.50;10.70;;;21.10;47.10;;;;;;5012667;28;20540;-68
2021/05/05 10:29:40;;;;;;;10.47;9.77;;;20.60;47.30;;;;;;5012607;28;21146;-68
2021/05/05 10:32:11;;;;;;;10.70;10.20;;;19.10;47.40;;;;;;5012604;28;20460;-68
2021/05/05 10:34:39;;;;;;;10.63;10.20;;;19.50;48.60;;;;;;5012315;28;20477;-69
2021/05/05 10:37:06;;;;;;;11.10;10.70;;;20.50;48.40;;;;;;5012548;28;20446;-69
2021/05/05 10:39:40;;;;;;;10.80;10.23;;;19.80;47.10;;;;;;5012758;28;20503;-69
2021/05/05 10:42:15;;;;;;;10.70;10.10;;;20.20;48.60;;;;;;5012553;28;20450;-68
2021/05/05 10:44:47;;;;;;;11.50;10.90;;;19.50;48.40;;;;;;5012218;28;20486;-68
2021/05/05 10:47:20;;;;;;;11.40;10.70;;;18.90;48.70;;;;;;5012380;28;20833;-69
2021/05/05 10:50:06;;;;;;;10.57;10.17;;;18.00;49.60;;;;;;5010366;28;20452;-69
2021/05/05 10:53:00;;;;;;;11.20;10.40;;;16.70;51.60;;;;;;5011808;28;20461;-69
2021/05/05 10:55:48;;;;;;;9.93;9.40;;;15.80;53.40;;;;;;5011822;28;20452;-69
2021/05/05 10:58:18;;;;;;;9.90;9.43;;;14.40;62.50;;;;;;5011792;28;20456;-70
2021/05/05 11:00:46;;;;;;;13.27;12.77;;;12.20;84.80;;;;;;5012029;28;20822;-69
2021/05/05 11:03:13;;;;;;;19.10;18.50;;;11.10;99.90;;;;;;5011345;28;20486;-69
2021/05/05 11:05:41;;;;;;;24.90;24.00;;;9.80;99.90;;;;;;5011466;28;20480;-74
2021/05/05 11:08:10;;;;;;;24.00;23.10;;;8.80;99.90;;;;;;5011278;28;20449;-75
2021/05/05 11:10:57;;;;;;;25.23;24.23;;;8.30;99.90;;;;;;5011857;28;20524;-76
2021/05/05 11:13:44;;;;;;;23.87;22.90;;;7.80;99.90;;;;;;5012002;28;20469;-73
2021/05/05 11:16:11;;;;;;;23.30;22.40;;;7.60;99.90;;;;;;5011617;28;20457;-73
2021/05/05 11:18:47;;;;;;;21.33;20.63;;;7.80;99.90;;;;;;5011538;28;20462;-74
2021/05/05 11:21:40;;;;;;;19.07;18.37;;;7.80;99.90;;;;;;5011139;28;20474;-73
2021/05/05 11:24:29;;;;;;;17.13;16.60;;;8.00;99.90;;;;;;5011858;28;20584;-72
2021/05/05 11:26:56;;;;;;;15.33;14.73;;;8.30;99.90;;;;;;5011379;28;20461;-72
2021/05/05 11:29:37;;;;;;;14.40;13.70;;;8.50;99.90;;;;;;5011530;28;20450;-71
2021/05/05 11:32:09;;;;;;;13.30;12.90;;;9.10;99.90;;;;;;5011263;28;20470;-72
2021/05/05 11:34:37;;;;;;;13.10;12.70;;;10.00;99.90;;;;;;5011659;28;20797;-71
2021/05/05 11:37:13;;;;;;;12.77;12.30;;;11.20;99.90;;;;;;5011209;28;20860;-71
2021/05/05 11:39:41;;;;;;;12.87;12.47;;;12.80;99.90;;;;;;5011217;28;20504;-71
2021/05/05 11:42:11;;;;;;;12.17;11.57;;;14.30;99.90;;;;;;5010847;28;20449;-71
2021/05/05 11:44:43;;;;;;;11.57;11.17;;;15.40;99.90;;;;;;5010915;28;20652;-70
2021/05/05 11:47:11;;;;;;;10.50;10.00;;;16.50;96.50;;;;;;5011365;28;20449;-70
2021/05/05 11:49:40;;;;;;;10.90;10.20;;;16.40;93.50;;;;;;5011244;28;20454;-70
2021/05/05 11:52:23;;;;;;;10.73;10.43;;;15.20;94.80;;;;;;5011010;28;20538;-71
2021/05/05 11:54:51;;;;;;;10.30;10.00;;;15.00;98.20;;;;;;5011088;28;20829;-70
2021/05/05 11:57:18;;;;;;;10.43;10.13;;;16.00;95.60;;;;;;5011272;28;20512;-70
2021/05/05 11:59:45;;;;;;;10.40;9.80;;;16.70;91.90;;;;;;5011071;28;20820;-69
2021/05/05 12:02:12;;;;;;;11.30;10.97;;;17.30;91.90;;;;;;5010612;28;20476;-69
2021/05/05 12:04:40;;;;;;;10.47;10.17;;;17.00;90.70;;;;;;5010854;28;20489;-68
2021/05/05 12:07:07;;;;;;;12.83;12.13;;;15.80;90.60;;;;;;5010686;28;20795;-68
2021/05/05 12:09:35;;;;;;;10.17;9.47;;;14.70;92.30;;;;;;5010982;28;20454;-69
2021/05/05 12:12:16;;;;;;;10.60;10.20;;;14.50;93.10;;;;;;5010502;28;20516;-68
2021/05/05 12:14:46;;;;;;;10.73;10.23;;;14.50;92.80;;;;;;5010090;28;20450;-68
2021/05/05 12:17:26;;;;;;;10.27;9.97;;;14.50;94.00;;;;;;5010645;28;20955;-68
2021/05/05 12:19:53;;;;;;;9.90;9.60;;;15.00;92.30;;;;;;5010399;28;20517;-67
2021/05/05 12:22:20;;;;;;;10.63;10.23;;;16.10;90.70;;;;;;5010568;28;20477;-67
2021/05/05 12:25:04;;;;;;;10.33;9.93;;;17.20;89.40;;;;;;5010478;28;20497;-67
2021/05/05 12:27:31;;;;;;;9.80;9.43;;;18.30;81.90;;;;;;5010830;28;20457;-67
2021/05/05 12:29:59;;;;;;;10.50;10.10;;;17.40;80.00;;;;;;5010565;28;20862;-71
2021/05/05 12:32:41;;;;;;;10.43;10.00;;;17.00;81.20;;;;;;5010003;28;20802;-68
2021/05/05 12:35:09;;;;;;;10.20;9.73;;;15.80;82.60;;;;;;5010374;28;20445;-67
2021/05/05 12:37:36;;;;;;;9.90;9.60;;;15.50;84.10;;;;;;5010681;28;20442;-68
2021/05/05 12:40:03;;;;;;;10.10;9.60;;;15.50;82.80;;;;;;5010419;28;20449;-68
2021/05/05 12:42:33;;;;;;;10.17;9.63;;;15.20;85.70;;;;;;5010255;28;20446;-67